sensor_id;sensor_type;location;lat;lon;timestamp;pressure;altitude;pressure_sealevel;temperature;humidity
56825;BME280;42705;50.326;18.772;2023-07-31T00:03:42;98101.17;;;17.70;72.22
56825;BME280;42705;50.326;18.772;2023-07-31T00:09:04;98103.48;;;17.65;72.27
56825;BME280;42705;50.326;18.772;2023-07-31T00:14:26;98106.27;;;17.59;72.38
56825;BME280;42705;50.326;18.772;2023-07-31T00:19:48;98108.10;;;17.52;72.37
56825;BME280;42705;50.326;18.772;2023-07-31T00:25:12;98105.95;;;17.46;72.33
56825;BME280;42705;50.326;18.772;2023-07-31T00:30:34;98107.50;;;17.40;72.28
56825;BME280;42705;50.326;18.772;2023-07-31T00:35:56;98105.95;;;17.34;72.50
56825;BME280;42705;50.326;18.772;2023-07-31T00:41:18;98108.80;;;17.35;72.46
56825;BME280;42705;50.326;18.772;2023-07-31T00:46:40;98110.70;;;17.31;72.23
56825;BME280;42705;50.326;18.772;2023-07-31T00:52:01;98117.35;;;17.23;71.98
56825;BME280;42705;50.326;18.772;2023-07-31T00:57:24;98124.66;;;17.18;71.84
56825;BME280;42705;50.326;18.772;2023-07-31T01:02:48;98128.66;;;17.12;71.88
56825;BME280;42705;50.326;18.772;2023-07-31T01:08:37;98140.54;;;17.04;71.66
56825;BME280;42705;50.326;18.772;2023-07-31T01:14:02;98144.29;;;16.99;71.71
56825;BME280;42705;50.326;18.772;2023-07-31T01:19:26;98146.23;;;16.93;71.78
56825;BME280;42705;50.326;18.772;2023-07-31T01:30:36;98143.93;;;16.83;71.84
56825;BME280;42705;50.326;18.772;2023-07-31T01:35:59;98149.46;;;16.82;71.92
56825;BME280;42705;50.326;18.772;2023-07-31T01:41:22;98151.82;;;16.77;71.97
56825;BME280;42705;50.326;18.772;2023-07-31T01:46:44;98154.60;;;16.79;72.09
56825;BME280;42705;50.326;18.772;2023-07-31T01:52:06;98155.55;;;16.83;72.18
56825;BME280;42705;50.326;18.772;2023-07-31T01:57:28;98157.30;;;16.86;71.99
56825;BME280;42705;50.326;18.772;2023-07-31T02:02:50;98154.61;;;16.86;71.88
56825;BME280;42705;50.326;18.772;2023-07-31T02:08:13;98158.03;;;16.86;71.97
56825;BME280;42705;50.326;18.772;2023-07-31T02:13:35;98168.67;;;16.86;71.86
56825;BME280;42705;50.326;18.772;2023-07-31T02:18:57;98169.84;;;16.87;71.85
56825;BME280;42705;50.326;18.772;2023-07-31T02:24:21;98175.21;;;16.81;71.80
56825;BME280;42705;50.326;18.772;2023-07-31T02:29:43;98182.66;;;16.73;71.90
56825;BME280;42705;50.326;18.772;2023-07-31T02:35:05;98185.15;;;16.70;71.98
56825;BME280;42705;50.326;18.772;2023-07-31T02:40:27;98176.84;;;16.72;72.18
56825;BME280;42705;50.326;18.772;2023-07-31T02:45:53;98164.27;;;16.76;72.09
56825;BME280;42705;50.326;18.772;2023-07-31T02:51:15;98185.51;;;16.76;72.06
56825;BME280;42705;50.326;18.772;2023-07-31T02:56:38;98192.35;;;16.73;72.00
56825;BME280;42705;50.326;18.772;2023-07-31T03:01:59;98191.91;;;16.67;72.06
56825;BME280;42705;50.326;18.772;2023-07-31T03:07:21;98197.48;;;16.67;72.09
56825;BME280;42705;50.326;18.772;2023-07-31T03:12:47;98199.58;;;16.69;72.17
56825;BME280;42705;50.326;18.772;2023-07-31T03:18:09;98200.05;;;16.71;72.01
56825;BME280;42705;50.326;18.772;2023-07-31T03:23:31;98193.91;;;16.79;72.03
56825;BME280;42705;50.326;18.772;2023-07-31T03:28:53;98188.85;;;16.85;71.86
56825;BME280;42705;50.326;18.772;2023-07-31T03:34:15;98188.92;;;16.87;71.96
56825;BME280;42705;50.326;18.772;2023-07-31T03:39:37;98198.98;;;16.93;71.73
56825;BME280;42705;50.326;18.772;2023-07-31T03:44:59;98213.88;;;16.97;71.52
56825;BME280;42705;50.326;18.772;2023-07-31T03:50:22;98219.42;;;16.96;71.40
56825;BME280;42705;50.326;18.772;2023-07-31T03:55:43;98222.10;;;16.91;71.23
56825;BME280;42705;50.326;18.772;2023-07-31T04:01:05;98209.91;;;16.93;71.31
56825;BME280;42705;50.326;18.772;2023-07-31T04:06:27;98210.73;;;16.98;71.27
56825;BME280;42705;50.326;18.772;2023-07-31T04:11:49;98215.19;;;17.10;71.10
56825;BME280;42705;50.326;18.772;2023-07-31T04:17:10;98215.65;;;17.20;70.93
56825;BME280;42705;50.326;18.772;2023-07-31T04:22:32;98212.71;;;17.31;70.79
56825;BME280;42705;50.326;18.772;2023-07-31T04:27:54;98220.04;;;17.40;70.24
56825;BME280;42705;50.326;18.772;2023-07-31T04:33:16;98220.02;;;17.32;69.89
56825;BME280;42705;50.326;18.772;2023-07-31T04:38:38;98226.27;;;17.26;69.81
56825;BME280;42705;50.326;18.772;2023-07-31T04:44:00;98231.26;;;17.24;69.86
56825;BME280;42705;50.326;18.772;2023-07-31T04:49:22;98228.73;;;17.32;69.85
56825;BME280;42705;50.326;18.772;2023-07-31T04:54:44;98232.30;;;17.37;69.69
56825;BME280;42705;50.326;18.772;2023-07-31T05:00:06;98229.66;;;17.41;69.39
56825;BME280;42705;50.326;18.772;2023-07-31T05:05:28;98223.45;;;17.53;69.06
56825;BME280;42705;50.326;18.772;2023-07-31T05:10:50;98228.95;;;17.66;68.86
56825;BME280;42705;50.326;18.772;2023-07-31T05:16:12;98220.06;;;17.78;68.59
56825;BME280;42705;50.326;18.772;2023-07-31T05:21:34;98219.08;;;17.94;68.41
56825;BME280;42705;50.326;18.772;2023-07-31T05:26:55;98226.27;;;18.02;67.92
56825;BME280;42705;50.326;18.772;2023-07-31T05:32:17;98228.73;;;18.05;67.89
56825;BME280;42705;50.326;18.772;2023-07-31T05:37:39;98228.52;;;18.05;67.69
56825;BME280;42705;50.326;18.772;2023-07-31T05:43:01;98237.23;;;17.99;67.14
56825;BME280;42705;50.326;18.772;2023-07-31T05:48:23;98235.36;;;18.04;66.87
56825;BME280;42705;50.326;18.772;2023-07-31T05:53:45;98238.35;;;18.19;66.73
56825;BME280;42705;50.326;18.772;2023-07-31T05:59:08;98239.67;;;18.37;66.29
56825;BME280;42705;50.326;18.772;2023-07-31T06:04:30;98236.73;;;18.50;65.64
56825;BME280;42705;50.326;18.772;2023-07-31T06:09:52;98240.39;;;18.67;65.28
56825;BME280;42705;50.326;18.772;2023-07-31T06:15:16;98232.77;;;18.82;64.79
56825;BME280;42705;50.326;18.772;2023-07-31T06:20:39;98233.40;;;18.88;64.37
56825;BME280;42705;50.326;18.772;2023-07-31T06:26:02;98230.23;;;18.98;63.99
56825;BME280;42705;50.326;18.772;2023-07-31T06:31:24;98231.77;;;19.04;63.50
56825;BME280;42705;50.326;18.772;2023-07-31T06:36:46;98236.85;;;19.12;62.97
56825;BME280;42705;50.326;18.772;2023-07-31T06:42:07;98231.44;;;19.18;62.42
56825;BME280;42705;50.326;18.772;2023-07-31T06:47:30;98226.84;;;19.26;62.30
56825;BME280;42705;50.326;18.772;2023-07-31T06:52:51;98224.05;;;19.19;61.81
56825;BME280;42705;50.326;18.772;2023-07-31T06:58:14;98226.45;;;19.15;61.48
56825;BME280;42705;50.326;18.772;2023-07-31T07:03:35;98234.75;;;19.25;61.33
56825;BME280;42705;50.326;18.772;2023-07-31T07:08:57;98234.15;;;19.32;61.20
56825;BME280;42705;50.326;18.772;2023-07-31T07:14:19;98233.23;;;19.42;60.78
56825;BME280;42705;50.326;18.772;2023-07-31T07:19:41;98238.77;;;19.39;60.11
56825;BME280;42705;50.326;18.772;2023-07-31T07:25:04;98237.10;;;19.41;59.94
56825;BME280;42705;50.326;18.772;2023-07-31T07:30:27;98231.67;;;19.44;59.92
56825;BME280;42705;50.326;18.772;2023-07-31T07:35:48;98229.22;;;19.37;59.74
56825;BME280;42705;50.326;18.772;2023-07-31T07:41:10;98233.73;;;19.32;60.15
56825;BME280;42705;50.326;18.772;2023-07-31T07:46:32;98236.73;;;19.34;60.04
56825;BME280;42705;50.326;18.772;2023-07-31T07:51:54;98237.27;;;19.35;59.92
56825;BME280;42705;50.326;18.772;2023-07-31T07:57:16;98234.33;;;19.39;59.93
56825;BME280;42705;50.326;18.772;2023-07-31T08:02:38;98234.64;;;19.54;59.66
56825;BME280;42705;50.326;18.772;2023-07-31T08:07:59;98238.55;;;19.65;59.41
56825;BME280;42705;50.326;18.772;2023-07-31T08:13:21;98238.84;;;19.65;59.07
56825;BME280;42705;50.326;18.772;2023-07-31T08:18:43;98234.55;;;19.68;59.12
56825;BME280;42705;50.326;18.772;2023-07-31T08:24:05;98244.58;;;19.73;58.46
56825;BME280;42705;50.326;18.772;2023-07-31T08:29:27;98245.86;;;19.80;58.31
56825;BME280;42705;50.326;18.772;2023-07-31T08:34:49;98244.29;;;19.91;58.04
56825;BME280;42705;50.326;18.772;2023-07-31T08:40:11;98239.90;;;20.07;57.77
56825;BME280;42705;50.326;18.772;2023-07-31T08:45:33;98237.78;;;20.19;57.55
56825;BME280;42705;50.326;18.772;2023-07-31T08:50:56;98241.13;;;20.30;57.11
56825;BME280;42705;50.326;18.772;2023-07-31T08:56:19;98238.73;;;20.54;56.96
56825;BME280;42705;50.326;18.772;2023-07-31T09:01:44;98233.89;;;20.78;56.34
56825;BME280;42705;50.326;18.772;2023-07-31T09:07:11;98225.32;;;21.02;55.95
56825;BME280;42705;50.326;18.772;2023-07-31T09:12:35;98224.48;;;21.18;55.27
56825;BME280;42705;50.326;18.772;2023-07-31T09:18:01;98222.23;;;21.31;54.50
56825;BME280;42705;50.326;18.772;2023-07-31T09:23:24;98220.98;;;21.41;53.65
56825;BME280;42705;50.326;18.772;2023-07-31T09:28:45;98215.78;;;21.56;53.39
56825;BME280;42705;50.326;18.772;2023-07-31T09:34:08;98211.83;;;21.71;52.65
56825;BME280;42705;50.326;18.772;2023-07-31T09:39:30;98214.80;;;21.87;52.01
56825;BME280;42705;50.326;18.772;2023-07-31T09:44:52;98214.48;;;21.87;51.49
56825;BME280;42705;50.326;18.772;2023-07-31T09:50:14;98222.73;;;21.86;51.06
56825;BME280;42705;50.326;18.772;2023-07-31T09:55:38;98210.14;;;21.94;50.74
56825;BME280;42705;50.326;18.772;2023-07-31T10:01:01;98209.20;;;22.03;50.71
56825;BME280;42705;50.326;18.772;2023-07-31T10:06:24;98207.69;;;22.06;50.43
56825;BME280;42705;50.326;18.772;2023-07-31T10:11:51;98209.51;;;22.05;49.93
56825;BME280;42705;50.326;18.772;2023-07-31T10:17:15;98191.67;;;22.14;49.30
56825;BME280;42705;50.326;18.772;2023-07-31T10:22:38;98181.43;;;22.31;48.78
56825;BME280;42705;50.326;18.772;2023-07-31T10:28:01;98174.21;;;22.25;48.23
56825;BME280;42705;50.326;18.772;2023-07-31T10:33:23;98174.39;;;22.27;47.87
56825;BME280;42705;50.326;18.772;2023-07-31T10:38:48;98169.89;;;22.31;46.99
56825;BME280;42705;50.326;18.772;2023-07-31T10:44:13;98161.02;;;22.37;46.71
56825;BME280;42705;50.326;18.772;2023-07-31T10:49:34;98158.10;;;22.44;46.17
56825;BME280;42705;50.326;18.772;2023-07-31T10:56:00;98156.11;;;22.32;45.47
56825;BME280;42705;50.326;18.772;2023-07-31T11:00:58;98155.39;;;22.38;45.48
56825;BME280;42705;50.326;18.772;2023-07-31T11:06:20;98150.08;;;22.54;45.31
56825;BME280;42705;50.326;18.772;2023-07-31T11:11:43;98147.95;;;22.60;44.76
56825;BME280;42705;50.326;18.772;2023-07-31T11:17:07;98139.12;;;22.76;44.90
56825;BME280;42705;50.326;18.772;2023-07-31T11:22:30;98126.44;;;22.94;44.74
56825;BME280;42705;50.326;18.772;2023-07-31T11:27:51;98123.46;;;23.25;44.38
56825;BME280;42705;50.326;18.772;2023-07-31T11:33:15;98119.33;;;23.64;43.74
56825;BME280;42705;50.326;18.772;2023-07-31T11:38:37;98120.27;;;23.89;42.85
56825;BME280;42705;50.326;18.772;2023-07-31T11:44:01;98121.74;;;23.91;42.73
56825;BME280;42705;50.326;18.772;2023-07-31T11:49:23;98125.98;;;23.75;42.41
56825;BME280;42705;50.326;18.772;2023-07-31T11:54:45;98123.45;;;23.47;42.46
56825;BME280;42705;50.326;18.772;2023-07-31T12:00:09;98120.94;;;23.42;42.78
56825;BME280;42705;50.326;18.772;2023-07-31T12:05:37;98119.20;;;23.57;42.80
56825;BME280;42705;50.326;18.772;2023-07-31T12:11:04;98113.52;;;23.67;42.76
56825;BME280;42705;50.326;18.772;2023-07-31T12:16:26;98104.63;;;23.91;42.73
56825;BME280;42705;50.326;18.772;2023-07-31T12:21:50;98090.73;;;24.46;42.21
56825;BME280;42705;50.326;18.772;2023-07-31T12:27:14;98082.40;;;25.00;41.11
56825;BME280;42705;50.326;18.772;2023-07-31T12:32:36;98079.00;;;25.38;39.37
56825;BME280;42705;50.326;18.772;2023-07-31T12:38:01;98070.17;;;25.64;38.82
56825;BME280;42705;50.326;18.772;2023-07-31T12:43:23;98059.46;;;26.14;38.45
56825;BME280;42705;50.326;18.772;2023-07-31T12:48:45;98051.23;;;26.65;37.99
56825;BME280;42705;50.326;18.772;2023-07-31T12:54:06;98047.59;;;26.78;37.50
56825;BME280;42705;50.326;18.772;2023-07-31T12:59:28;98043.86;;;26.81;37.22
56825;BME280;42705;50.326;18.772;2023-07-31T13:04:51;98042.38;;;26.88;36.98
56825;BME280;42705;50.326;18.772;2023-07-31T13:10:13;98036.98;;;27.00;36.66
56825;BME280;42705;50.326;18.772;2023-07-31T13:15:35;98036.89;;;26.96;36.41
56825;BME280;42705;50.326;18.772;2023-07-31T13:20:57;98024.64;;;26.26;36.94
56825;BME280;42705;50.326;18.772;2023-07-31T13:26:18;98020.63;;;25.96;37.37
56825;BME280;42705;50.326;18.772;2023-07-31T13:31:41;98018.38;;;26.17;37.27
56825;BME280;42705;50.326;18.772;2023-07-31T13:37:03;98012.67;;;27.63;35.80
56825;BME280;42705;50.326;18.772;2023-07-31T13:42:27;98015.45;;;28.24;35.22
56825;BME280;42705;50.326;18.772;2023-07-31T13:47:50;98008.02;;;28.70;34.69
56825;BME280;42705;50.326;18.772;2023-07-31T13:53:13;98006.44;;;28.35;35.08
56825;BME280;42705;50.326;18.772;2023-07-31T13:58:34;98010.57;;;27.66;35.32
56825;BME280;42705;50.326;18.772;2023-07-31T14:03:56;98012.02;;;27.69;35.04
56825;BME280;42705;50.326;18.772;2023-07-31T14:09:18;98012.16;;;27.72;35.06
56825;BME280;42705;50.326;18.772;2023-07-31T14:14:40;98009.60;;;27.07;35.81
56825;BME280;42705;50.326;18.772;2023-07-31T14:20:03;98004.66;;;26.65;36.38
56825;BME280;42705;50.326;18.772;2023-07-31T14:25:25;98009.96;;;26.13;36.92
56825;BME280;42705;50.326;18.772;2023-07-31T14:30:47;98006.41;;;25.58;37.37
56825;BME280;42705;50.326;18.772;2023-07-31T14:36:09;98007.63;;;25.09;38.17
56825;BME280;42705;50.326;18.772;2023-07-31T14:41:31;98007.87;;;24.88;38.95
56825;BME280;42705;50.326;18.772;2023-07-31T14:46:53;98004.85;;;24.78;39.10
56825;BME280;42705;50.326;18.772;2023-07-31T14:52:14;97996.27;;;24.82;39.59
56825;BME280;42705;50.326;18.772;2023-07-31T14:57:36;97984.77;;;25.07;39.54
56825;BME280;42705;50.326;18.772;2023-07-31T15:02:59;97978.77;;;26.54;38.31
56825;BME280;42705;50.326;18.772;2023-07-31T15:08:21;97973.33;;;29.49;35.87
56825;BME280;42705;50.326;18.772;2023-07-31T15:13:43;97965.56;;;31.14;33.41
56825;BME280;42705;50.326;18.772;2023-07-31T15:19:05;97959.98;;;29.65;33.44
56825;BME280;42705;50.326;18.772;2023-07-31T15:24:27;97959.78;;;28.66;34.13
56825;BME280;42705;50.326;18.772;2023-07-31T15:29:49;97957.73;;;28.49;34.01
56825;BME280;42705;50.326;18.772;2023-07-31T15:35:13;97955.23;;;30.40;32.41
56825;BME280;42705;50.326;18.772;2023-07-31T15:40:34;97952.20;;;31.60;31.09
56825;BME280;42705;50.326;18.772;2023-07-31T15:45:56;97955.36;;;32.38;30.53
56825;BME280;42705;50.326;18.772;2023-07-31T15:51:19;97946.60;;;31.91;30.62
56825;BME280;42705;50.326;18.772;2023-07-31T15:56:41;97939.20;;;30.68;30.96
56825;BME280;42705;50.326;18.772;2023-07-31T16:02:03;97934.32;;;30.16;31.52
56825;BME280;42705;50.326;18.772;2023-07-31T16:07:25;97933.14;;;30.55;31.25
56825;BME280;42705;50.326;18.772;2023-07-31T16:12:48;97927.15;;;31.64;31.05
56825;BME280;42705;50.326;18.772;2023-07-31T16:18:10;97925.13;;;32.62;30.20
56825;BME280;42705;50.326;18.772;2023-07-31T16:23:32;97921.52;;;32.45;29.78
56825;BME280;42705;50.326;18.772;2023-07-31T16:28:53;97914.46;;;31.75;29.98
56825;BME280;42705;50.326;18.772;2023-07-31T16:34:15;97912.10;;;31.57;29.81
56825;BME280;42705;50.326;18.772;2023-07-31T16:39:37;97910.77;;;30.57;30.57
56825;BME280;42705;50.326;18.772;2023-07-31T16:44:59;97904.13;;;30.03;31.28
56825;BME280;42705;50.326;18.772;2023-07-31T16:50:21;97903.98;;;30.42;31.45
56825;BME280;42705;50.326;18.772;2023-07-31T16:55:43;97903.58;;;30.25;31.24
56825;BME280;42705;50.326;18.772;2023-07-31T17:01:04;97902.59;;;29.81;31.67
56825;BME280;42705;50.326;18.772;2023-07-31T17:06:27;97905.88;;;29.03;31.96
56825;BME280;42705;50.326;18.772;2023-07-31T17:11:51;97910.46;;;28.47;32.65
56825;BME280;42705;50.326;18.772;2023-07-31T17:17:13;97906.80;;;28.25;33.24
56825;BME280;42705;50.326;18.772;2023-07-31T17:22:35;97903.52;;;28.25;33.54
56825;BME280;42705;50.326;18.772;2023-07-31T17:27:57;97901.18;;;28.11;33.93
56825;BME280;42705;50.326;18.772;2023-07-31T17:33:19;97908.01;;;27.58;34.12
56825;BME280;42705;50.326;18.772;2023-07-31T17:38:41;97911.23;;;26.79;34.94
56825;BME280;42705;50.326;18.772;2023-07-31T17:44:03;97909.50;;;26.26;35.83
56825;BME280;42705;50.326;18.772;2023-07-31T17:49:25;97908.86;;;25.64;36.56
56825;BME280;42705;50.326;18.772;2023-07-31T17:54:47;97904.62;;;25.24;37.33
56825;BME280;42705;50.326;18.772;2023-07-31T18:00:13;97903.95;;;24.97;37.90
56825;BME280;42705;50.326;18.772;2023-07-31T18:05:38;97911.66;;;24.68;38.50
56825;BME280;42705;50.326;18.772;2023-07-31T18:11:02;97921.92;;;24.42;39.18
56825;BME280;42705;50.326;18.772;2023-07-31T18:16:24;97924.05;;;24.12;39.75
56825;BME280;42705;50.326;18.772;2023-07-31T18:21:46;97929.02;;;23.74;40.27
56825;BME280;42705;50.326;18.772;2023-07-31T18:27:08;97931.46;;;23.30;41.14
56825;BME280;42705;50.326;18.772;2023-07-31T18:32:30;97922.95;;;22.86;41.89
56825;BME280;42705;50.326;18.772;2023-07-31T18:37:52;97920.81;;;22.54;42.64
56825;BME280;42705;50.326;18.772;2023-07-31T18:43:14;97911.73;;;22.27;43.34
56825;BME280;42705;50.326;18.772;2023-07-31T18:48:36;97914.45;;;22.10;44.19
56825;BME280;42705;50.326;18.772;2023-07-31T18:53:58;97917.25;;;21.98;44.60
56825;BME280;42705;50.326;18.772;2023-07-31T18:59:19;97930.91;;;21.88;44.73
56825;BME280;42705;50.326;18.772;2023-07-31T19:04:41;97936.44;;;21.77;45.00
56825;BME280;42705;50.326;18.772;2023-07-31T19:10:04;97940.73;;;21.68;45.23
56825;BME280;42705;50.326;18.772;2023-07-31T19:15:26;97941.34;;;21.62;45.38
56825;BME280;42705;50.326;18.772;2023-07-31T19:20:48;97936.54;;;21.57;45.91
56825;BME280;42705;50.326;18.772;2023-07-31T19:26:10;97936.92;;;21.53;46.38
56825;BME280;42705;50.326;18.772;2023-07-31T19:31:33;97930.51;;;21.48;46.78
56825;BME280;42705;50.326;18.772;2023-07-31T19:36:55;97930.90;;;21.41;47.27
56825;BME280;42705;50.326;18.772;2023-07-31T19:42:17;97926.46;;;21.35;47.64
56825;BME280;42705;50.326;18.772;2023-07-31T19:47:39;97919.34;;;21.28;47.84
56825;BME280;42705;50.326;18.772;2023-07-31T19:53:02;97909.56;;;21.19;48.13
56825;BME280;42705;50.326;18.772;2023-07-31T19:58:24;97906.56;;;21.13;48.15
56825;BME280;42705;50.326;18.772;2023-07-31T20:03:45;97911.65;;;21.08;48.06
56825;BME280;42705;50.326;18.772;2023-07-31T20:09:07;97907.23;;;21.03;48.21
56825;BME280;42705;50.326;18.772;2023-07-31T20:14:29;97906.54;;;21.00;48.31
56825;BME280;42705;50.326;18.772;2023-07-31T20:19:51;97901.50;;;20.96;48.55
56825;BME280;42705;50.326;18.772;2023-07-31T20:25:13;97893.27;;;20.95;48.81
56825;BME280;42705;50.326;18.772;2023-07-31T20:30:35;97899.14;;;20.94;49.00
56825;BME280;42705;50.326;18.772;2023-07-31T20:35:57;97886.56;;;20.91;49.36
56825;BME280;42705;50.326;18.772;2023-07-31T20:41:18;97877.51;;;20.88;49.55
56825;BME280;42705;50.326;18.772;2023-07-31T20:46:40;97869.61;;;20.82;49.77
56825;BME280;42705;50.326;18.772;2023-07-31T20:52:02;97857.17;;;20.75;49.83
56825;BME280;42705;50.326;18.772;2023-07-31T20:57:24;97852.05;;;20.68;50.09
56825;BME280;42705;50.326;18.772;2023-07-31T21:02:46;97844.37;;;20.61;50.21
56825;BME280;42705;50.326;18.772;2023-07-31T21:08:08;97841.86;;;20.55;50.47
56825;BME280;42705;50.326;18.772;2023-07-31T21:13:30;97835.61;;;20.49;50.36
56825;BME280;42705;50.326;18.772;2023-07-31T21:18:54;97831.63;;;20.42;50.49
56825;BME280;42705;50.326;18.772;2023-07-31T21:24:17;97828.46;;;20.36;50.62
56825;BME280;42705;50.326;18.772;2023-07-31T21:29:38;97820.33;;;20.29;50.69
56825;BME280;42705;50.326;18.772;2023-07-31T21:35:00;97812.19;;;20.24;50.95
56825;BME280;42705;50.326;18.772;2023-07-31T21:40:22;97810.65;;;20.21;50.88
56825;BME280;42705;50.326;18.772;2023-07-31T21:45:44;97807.24;;;20.19;50.96
56825;BME280;42705;50.326;18.772;2023-07-31T21:51:07;97800.45;;;20.10;51.00
56825;BME280;42705;50.326;18.772;2023-07-31T21:56:29;97796.80;;;20.01;51.25
56825;BME280;42705;50.326;18.772;2023-07-31T22:01:51;97792.53;;;19.93;51.65
56825;BME280;42705;50.326;18.772;2023-07-31T22:07:13;97787.18;;;19.91;51.95
56825;BME280;42705;50.326;18.772;2023-07-31T22:12:35;97785.55;;;19.87;52.17
56825;BME280;42705;50.326;18.772;2023-07-31T22:17:57;97786.05;;;19.85;52.42
56825;BME280;42705;50.326;18.772;2023-07-31T22:23:19;97788.94;;;19.84;52.65
56825;BME280;42705;50.326;18.772;2023-07-31T22:28:40;97781.28;;;19.84;52.83
56825;BME280;42705;50.326;18.772;2023-07-31T22:34:02;97778.70;;;19.84;53.04
56825;BME280;42705;50.326;18.772;2023-07-31T22:39:24;97776.67;;;19.82;53.07
56825;BME280;42705;50.326;18.772;2023-07-31T22:44:46;97767.81;;;19.81;53.29
56825;BME280;42705;50.326;18.772;2023-07-31T22:50:08;97765.02;;;19.81;53.38
56825;BME280;42705;50.326;18.772;2023-07-31T22:55:30;97766.11;;;19.79;53.37
56825;BME280;42705;50.326;18.772;2023-07-31T23:01:00;97765.06;;;19.73;53.52
56825;BME280;42705;50.326;18.772;2023-07-31T23:06:22;97759.11;;;19.70;53.58
56825;BME280;42705;50.326;18.772;2023-07-31T23:11:44;97757.60;;;19.64;53.64
56825;BME280;42705;50.326;18.772;2023-07-31T23:17:06;97752.10;;;19.62;53.79
56825;BME280;42705;50.326;18.772;2023-07-31T23:22:30;97743.27;;;19.63;53.87
56825;BME280;42705;50.326;18.772;2023-07-31T23:27:52;97728.51;;;19.64;53.89
56825;BME280;42705;50.326;18.772;2023-07-31T23:33:14;97721.39;;;19.63;54.02
56825;BME280;42705;50.326;18.772;2023-07-31T23:38:36;97716.71;;;19.58;53.94
56825;BME280;42705;50.326;18.772;2023-07-31T23:43:59;97707.06;;;19.52;53.98
56825;BME280;42705;50.326;18.772;2023-07-31T23:49:21;97699.80;;;19.46;54.08
56825;BME280;42705;50.326;18.772;2023-07-31T23:54:43;97702.09;;;19.44;54.24
